sensor_id;sensor_type;location;lat;lon;timestamp;P1;durP1;ratioP1;P2;durP2;ratioP2
26588;SDS011;14235;48.532;8.722;2023-12-14T00:01:14;1.83;;;1.73;;
26588;SDS011;14235;48.532;8.722;2023-12-14T00:03:40;2.13;;;2.03;;
26588;SDS011;14235;48.532;8.722;2023-12-14T00:06:10;2.65;;;2.45;;
26588;SDS011;14235;48.532;8.722;2023-12-14T00:08:36;3.13;;;2.92;;
26588;SDS011;14235;48.532;8.722;2023-12-14T00:11:05;2.60;;;2.40;;
26588;SDS011;14235;48.532;8.722;2023-12-14T00:13:32;2.75;;;2.55;;
26588;SDS011;14235;48.532;8.722;2023-12-14T00:15:58;3.13;;;2.78;;
26588;SDS011;14235;48.532;8.722;2023-12-14T00:18:30;2.97;;;2.78;;
26588;SDS011;14235;48.532;8.722;2023-12-14T00:20:56;3.33;;;2.83;;
26588;SDS011;14235;48.532;8.722;2023-12-14T00:23:22;2.85;;;2.53;;
26588;SDS011;14235;48.532;8.722;2023-12-14T00:25:48;2.22;;;2.13;;
26588;SDS011;14235;48.532;8.722;2023-12-14T00:28:14;1.92;;;1.83;;
26588;SDS011;14235;48.532;8.722;2023-12-14T00:30:40;1.90;;;1.80;;
26588;SDS011;14235;48.532;8.722;2023-12-14T00:33:13;5.45;;;1.80;;
26588;SDS011;14235;48.532;8.722;2023-12-14T00:35:38;1.77;;;1.67;;
26588;SDS011;14235;48.532;8.722;2023-12-14T00:38:04;3.78;;;1.83;;
26588;SDS011;14235;48.532;8.722;2023-12-14T00:40:30;1.80;;;1.70;;
26588;SDS011;14235;48.532;8.722;2023-12-14T00:42:56;1.85;;;1.75;;
26588;SDS011;14235;48.532;8.722;2023-12-14T00:45:21;3.70;;;2.90;;
26588;SDS011;14235;48.532;8.722;2023-12-14T00:48:07;3.53;;;2.92;;
26588;SDS011;14235;48.532;8.722;2023-12-14T00:50:33;3.40;;;2.97;;
26588;SDS011;14235;48.532;8.722;2023-12-14T00:52:58;3.45;;;3.05;;
26588;SDS011;14235;48.532;8.722;2023-12-14T00:55:24;4.18;;;3.08;;
26588;SDS011;14235;48.532;8.722;2023-12-14T00:57:57;3.45;;;3.15;;
26588;SDS011;14235;48.532;8.722;2023-12-14T01:00:23;3.35;;;3.05;;
26588;SDS011;14235;48.532;8.722;2023-12-14T01:02:49;2.95;;;2.65;;
26588;SDS011;14235;48.532;8.722;2023-12-14T01:05:15;4.63;;;3.00;;
26588;SDS011;14235;48.532;8.722;2023-12-14T01:07:40;3.30;;;3.00;;
26588;SDS011;14235;48.532;8.722;2023-12-14T01:10:06;3.67;;;3.03;;
26588;SDS011;14235;48.532;8.722;2023-12-14T01:12:32;4.80;;;2.90;;
26588;SDS011;14235;48.532;8.722;2023-12-14T01:14:58;2.80;;;2.60;;
26588;SDS011;14235;48.532;8.722;2023-12-14T01:17:24;2.85;;;2.65;;
26588;SDS011;14235;48.532;8.722;2023-12-14T01:19:50;2.50;;;2.30;;
26588;SDS011;14235;48.532;8.722;2023-12-14T01:22:16;2.50;;;2.30;;
26588;SDS011;14235;48.532;8.722;2023-12-14T01:24:41;3.35;;;2.65;;
26588;SDS011;14235;48.532;8.722;2023-12-14T01:27:07;2.35;;;2.05;;
26588;SDS011;14235;48.532;8.722;2023-12-14T01:29:35;2.38;;;2.17;;
26588;SDS011;14235;48.532;8.722;2023-12-14T01:32:01;2.30;;;2.20;;
26588;SDS011;14235;48.532;8.722;2023-12-14T01:34:26;3.47;;;2.58;;
26588;SDS011;14235;48.532;8.722;2023-12-14T01:36:52;3.47;;;2.58;;
26588;SDS011;14235;48.532;8.722;2023-12-14T01:39:18;2.50;;;2.30;;
26588;SDS011;14235;48.532;8.722;2023-12-14T01:41:44;2.22;;;2.10;;
26588;SDS011;14235;48.532;8.722;2023-12-14T01:44:10;2.58;;;2.38;;
26588;SDS011;14235;48.532;8.722;2023-12-14T01:46:41;2.60;;;2.40;;
26588;SDS011;14235;48.532;8.722;2023-12-14T01:49:07;2.15;;;2.03;;
26588;SDS011;14235;48.532;8.722;2023-12-14T01:51:33;2.58;;;2.10;;
26588;SDS011;14235;48.532;8.722;2023-12-14T01:54:00;2.20;;;2.10;;
26588;SDS011;14235;48.532;8.722;2023-12-14T01:56:25;2.53;;;2.33;;
26588;SDS011;14235;48.532;8.722;2023-12-14T01:58:51;2.83;;;2.20;;
26588;SDS011;14235;48.532;8.722;2023-12-14T02:01:26;2.88;;;2.67;;
26588;SDS011;14235;48.532;8.722;2023-12-14T02:04:01;2.67;;;2.47;;
26588;SDS011;14235;48.532;8.722;2023-12-14T02:06:27;3.65;;;2.33;;
26588;SDS011;14235;48.532;8.722;2023-12-14T02:08:53;2.00;;;1.90;;
26588;SDS011;14235;48.532;8.722;2023-12-14T02:11:25;2.47;;;2.28;;
26588;SDS011;14235;48.532;8.722;2023-12-14T02:14:05;2.10;;;1.95;;
26588;SDS011;14235;48.532;8.722;2023-12-14T02:16:31;2.65;;;2.45;;
26588;SDS011;14235;48.532;8.722;2023-12-14T02:18:57;2.60;;;2.40;;
26588;SDS011;14235;48.532;8.722;2023-12-14T02:21:23;2.38;;;2.20;;
26588;SDS011;14235;48.532;8.722;2023-12-14T02:23:49;2.22;;;2.13;;
26588;SDS011;14235;48.532;8.722;2023-12-14T02:26:15;4.63;;;2.88;;
26588;SDS011;14235;48.532;8.722;2023-12-14T02:28:41;2.65;;;2.45;;
26588;SDS011;14235;48.532;8.722;2023-12-14T02:31:07;2.50;;;2.30;;
26588;SDS011;14235;48.532;8.722;2023-12-14T02:33:32;2.55;;;2.35;;
26588;SDS011;14235;48.532;8.722;2023-12-14T02:35:59;3.15;;;2.53;;
26588;SDS011;14235;48.532;8.722;2023-12-14T02:38:25;2.42;;;2.22;;
26588;SDS011;14235;48.532;8.722;2023-12-14T02:40:51;2.20;;;2.10;;
26588;SDS011;14235;48.532;8.722;2023-12-14T02:43:17;3.78;;;2.17;;
26588;SDS011;14235;48.532;8.722;2023-12-14T02:45:44;2.10;;;2.00;;
26588;SDS011;14235;48.532;8.722;2023-12-14T02:48:10;2.58;;;2.38;;
26588;SDS011;14235;48.532;8.722;2023-12-14T02:50:36;2.33;;;2.22;;
26588;SDS011;14235;48.532;8.722;2023-12-14T02:53:02;2.97;;;2.50;;
26588;SDS011;14235;48.532;8.722;2023-12-14T02:55:28;2.67;;;2.47;;
26588;SDS011;14235;48.532;8.722;2023-12-14T02:57:54;2.65;;;2.45;;
26588;SDS011;14235;48.532;8.722;2023-12-14T03:00:30;2.45;;;2.25;;
26588;SDS011;14235;48.532;8.722;2023-12-14T03:02:56;3.85;;;2.58;;
26588;SDS011;14235;48.532;8.722;2023-12-14T03:05:21;2.55;;;2.35;;
26588;SDS011;14235;48.532;8.722;2023-12-14T03:07:47;2.38;;;2.28;;
26588;SDS011;14235;48.532;8.722;2023-12-14T03:10:13;3.08;;;2.20;;
26588;SDS011;14235;48.532;8.722;2023-12-14T03:12:54;2.40;;;2.20;;
26588;SDS011;14235;48.532;8.722;2023-12-14T03:15:19;2.72;;;2.25;;
26588;SDS011;14235;48.532;8.722;2023-12-14T03:17:45;2.20;;;2.10;;
26588;SDS011;14235;48.532;8.722;2023-12-14T03:20:11;2.30;;;2.17;;
26588;SDS011;14235;48.532;8.722;2023-12-14T03:22:39;3.03;;;2.35;;
26588;SDS011;14235;48.532;8.722;2023-12-14T03:25:05;2.65;;;2.45;;
26588;SDS011;14235;48.532;8.722;2023-12-14T03:27:40;2.85;;;2.38;;
26588;SDS011;14235;48.532;8.722;2023-12-14T03:30:15;2.63;;;2.42;;
26588;SDS011;14235;48.532;8.722;2023-12-14T03:32:41;2.33;;;2.17;;
26588;SDS011;14235;48.532;8.722;2023-12-14T03:35:07;2.47;;;2.38;;
26588;SDS011;14235;48.532;8.722;2023-12-14T03:37:33;2.50;;;2.30;;
26588;SDS011;14235;48.532;8.722;2023-12-14T03:39:59;2.83;;;2.63;;
26588;SDS011;14235;48.532;8.722;2023-12-14T03:42:25;3.30;;;3.00;;
26588;SDS011;14235;48.532;8.722;2023-12-14T03:44:51;2.83;;;2.63;;
26588;SDS011;14235;48.532;8.722;2023-12-14T03:47:17;3.42;;;2.40;;
26588;SDS011;14235;48.532;8.722;2023-12-14T03:49:43;2.97;;;2.70;;
26588;SDS011;14235;48.532;8.722;2023-12-14T03:52:09;2.80;;;2.60;;
26588;SDS011;14235;48.532;8.722;2023-12-14T03:54:34;2.85;;;2.50;;
26588;SDS011;14235;48.532;8.722;2023-12-14T03:57:00;3.22;;;2.85;;
26588;SDS011;14235;48.532;8.722;2023-12-14T03:59:26;3.10;;;2.80;;
26588;SDS011;14235;48.532;8.722;2023-12-14T04:01:51;3.00;;;2.70;;
26588;SDS011;14235;48.532;8.722;2023-12-14T04:04:20;2.70;;;2.50;;
26588;SDS011;14235;48.532;8.722;2023-12-14T04:06:45;3.25;;;2.80;;
26588;SDS011;14235;48.532;8.722;2023-12-14T04:09:11;3.08;;;2.80;;
26588;SDS011;14235;48.532;8.722;2023-12-14T04:11:37;2.42;;;2.22;;
26588;SDS011;14235;48.532;8.722;2023-12-14T04:14:02;2.38;;;2.17;;
26588;SDS011;14235;48.532;8.722;2023-12-14T04:16:28;2.33;;;2.00;;
26588;SDS011;14235;48.532;8.722;2023-12-14T04:18:54;2.25;;;2.15;;
26588;SDS011;14235;48.532;8.722;2023-12-14T04:21:19;2.15;;;2.05;;
26588;SDS011;14235;48.532;8.722;2023-12-14T04:23:45;2.50;;;2.30;;
26588;SDS011;14235;48.532;8.722;2023-12-14T04:26:11;2.15;;;2.05;;
26588;SDS011;14235;48.532;8.722;2023-12-14T04:28:38;2.92;;;2.72;;
26588;SDS011;14235;48.532;8.722;2023-12-14T04:31:04;2.80;;;2.58;;
26588;SDS011;14235;48.532;8.722;2023-12-14T04:33:30;2.83;;;2.63;;
26588;SDS011;14235;48.532;8.722;2023-12-14T04:35:56;4.72;;;2.92;;
26588;SDS011;14235;48.532;8.722;2023-12-14T04:38:22;3.03;;;2.72;;
26588;SDS011;14235;48.532;8.722;2023-12-14T04:40:48;3.08;;;2.80;;
26588;SDS011;14235;48.532;8.722;2023-12-14T04:43:14;3.45;;;3.15;;
26588;SDS011;14235;48.532;8.722;2023-12-14T04:45:40;3.00;;;2.80;;
26588;SDS011;14235;48.532;8.722;2023-12-14T04:48:05;4.32;;;2.75;;
26588;SDS011;14235;48.532;8.722;2023-12-14T04:50:31;3.40;;;2.60;;
26588;SDS011;14235;48.532;8.722;2023-12-14T04:53:00;3.38;;;3.08;;
26588;SDS011;14235;48.532;8.722;2023-12-14T04:55:25;3.15;;;2.80;;
26588;SDS011;14235;48.532;8.722;2023-12-14T04:57:51;2.60;;;2.40;;
26588;SDS011;14235;48.532;8.722;2023-12-14T05:00:17;2.25;;;2.13;;
26588;SDS011;14235;48.532;8.722;2023-12-14T05:02:45;2.20;;;2.10;;
26588;SDS011;14235;48.532;8.722;2023-12-14T05:05:13;2.50;;;2.30;;
26588;SDS011;14235;48.532;8.722;2023-12-14T05:07:39;2.20;;;2.10;;
26588;SDS011;14235;48.532;8.722;2023-12-14T05:10:04;4.03;;;2.28;;
26588;SDS011;14235;48.532;8.722;2023-12-14T05:12:30;3.65;;;2.30;;
26588;SDS011;14235;48.532;8.722;2023-12-14T05:14:56;2.55;;;2.30;;
26588;SDS011;14235;48.532;8.722;2023-12-14T05:17:22;2.90;;;2.65;;
26588;SDS011;14235;48.532;8.722;2023-12-14T05:19:48;2.58;;;2.38;;
26588;SDS011;14235;48.532;8.722;2023-12-14T05:22:14;2.78;;;2.58;;
26588;SDS011;14235;48.532;8.722;2023-12-14T05:24:40;4.32;;;3.20;;
26588;SDS011;14235;48.532;8.722;2023-12-14T05:27:06;3.55;;;3.25;;
26588;SDS011;14235;48.532;8.722;2023-12-14T05:29:32;2.60;;;2.25;;
26588;SDS011;14235;48.532;8.722;2023-12-14T05:31:58;3.15;;;2.65;;
26588;SDS011;14235;48.532;8.722;2023-12-14T05:34:24;3.08;;;2.78;;
26588;SDS011;14235;48.532;8.722;2023-12-14T05:36:50;2.90;;;2.70;;
26588;SDS011;14235;48.532;8.722;2023-12-14T05:39:16;2.80;;;2.60;;
26588;SDS011;14235;48.532;8.722;2023-12-14T05:41:41;3.00;;;2.78;;
26588;SDS011;14235;48.532;8.722;2023-12-14T05:44:07;3.50;;;2.90;;
26588;SDS011;14235;48.532;8.722;2023-12-14T05:46:33;3.28;;;2.42;;
26588;SDS011;14235;48.532;8.722;2023-12-14T05:48:59;2.90;;;2.70;;
26588;SDS011;14235;48.532;8.722;2023-12-14T05:51:26;3.40;;;3.10;;
26588;SDS011;14235;48.532;8.722;2023-12-14T05:54:01;5.72;;;4.45;;
26588;SDS011;14235;48.532;8.722;2023-12-14T05:56:27;4.47;;;4.07;;
26588;SDS011;14235;48.532;8.722;2023-12-14T05:58:54;4.57;;;4.18;;
26588;SDS011;14235;48.532;8.722;2023-12-14T06:01:24;4.22;;;3.75;;
26588;SDS011;14235;48.532;8.722;2023-12-14T06:03:53;4.55;;;4.15;;
26588;SDS011;14235;48.532;8.722;2023-12-14T06:06:22;3.10;;;2.88;;
26588;SDS011;14235;48.532;8.722;2023-12-14T06:08:50;3.58;;;3.28;;
26588;SDS011;14235;48.532;8.722;2023-12-14T06:11:22;5.78;;;4.93;;
26588;SDS011;14235;48.532;8.722;2023-12-14T06:13:48;5.50;;;4.57;;
26588;SDS011;14235;48.532;8.722;2023-12-14T06:16:14;4.50;;;4.10;;
26588;SDS011;14235;48.532;8.722;2023-12-14T06:18:40;3.88;;;3.55;;
26588;SDS011;14235;48.532;8.722;2023-12-14T06:21:08;6.38;;;4.30;;
26588;SDS011;14235;48.532;8.722;2023-12-14T06:23:36;5.95;;;3.97;;
26588;SDS011;14235;48.532;8.722;2023-12-14T06:26:03;3.35;;;3.05;;
26588;SDS011;14235;48.532;8.722;2023-12-14T06:28:29;3.40;;;3.10;;
26588;SDS011;14235;48.532;8.722;2023-12-14T06:30:56;2.72;;;2.53;;
26588;SDS011;14235;48.532;8.722;2023-12-14T06:33:26;2.95;;;2.75;;
26588;SDS011;14235;48.532;8.722;2023-12-14T06:38:54;3.75;;;3.05;;
26588;SDS011;14235;48.532;8.722;2023-12-14T06:41:20;4.78;;;2.75;;
26588;SDS011;14235;48.532;8.722;2023-12-14T06:43:47;5.68;;;2.88;;
26588;SDS011;14235;48.532;8.722;2023-12-14T06:46:13;5.25;;;4.22;;
26588;SDS011;14235;48.532;8.722;2023-12-14T06:48:56;4.93;;;4.53;;
26588;SDS011;14235;48.532;8.722;2023-12-14T06:51:22;4.28;;;3.97;;
26588;SDS011;14235;48.532;8.722;2023-12-14T06:53:48;4.60;;;4.20;;
26588;SDS011;14235;48.532;8.722;2023-12-14T06:56:24;4.15;;;3.72;;
26588;SDS011;14235;48.532;8.722;2023-12-14T06:58:49;4.35;;;3.33;;
26588;SDS011;14235;48.532;8.722;2023-12-14T07:01:24;5.38;;;3.30;;
26588;SDS011;14235;48.532;8.722;2023-12-14T07:03:50;2.95;;;2.67;;
26588;SDS011;14235;48.532;8.722;2023-12-14T07:06:16;2.65;;;2.45;;
26588;SDS011;14235;48.532;8.722;2023-12-14T07:08:43;3.00;;;2.70;;
26588;SDS011;14235;48.532;8.722;2023-12-14T07:11:12;3.10;;;2.90;;
26588;SDS011;14235;48.532;8.722;2023-12-14T07:13:39;2.60;;;2.40;;
26588;SDS011;14235;48.532;8.722;2023-12-14T07:18:33;5.18;;;3.05;;
26588;SDS011;14235;48.532;8.722;2023-12-14T07:21:07;2.67;;;2.47;;
26588;SDS011;14235;48.532;8.722;2023-12-14T07:23:39;2.72;;;2.53;;
26588;SDS011;14235;48.532;8.722;2023-12-14T07:26:04;2.65;;;2.47;;
26588;SDS011;14235;48.532;8.722;2023-12-14T07:28:30;2.85;;;2.65;;
26588;SDS011;14235;48.532;8.722;2023-12-14T07:30:56;2.90;;;2.55;;
26588;SDS011;14235;48.532;8.722;2023-12-14T07:33:22;2.90;;;2.60;;
26588;SDS011;14235;48.532;8.722;2023-12-14T07:35:47;2.72;;;2.53;;
26588;SDS011;14235;48.532;8.722;2023-12-14T07:38:13;2.80;;;2.60;;
26588;SDS011;14235;48.532;8.722;2023-12-14T07:40:39;3.22;;;2.92;;
26588;SDS011;14235;48.532;8.722;2023-12-14T07:43:05;5.70;;;3.05;;
26588;SDS011;14235;48.532;8.722;2023-12-14T07:45:32;3.28;;;2.97;;
26588;SDS011;14235;48.532;8.722;2023-12-14T07:47:57;4.03;;;3.13;;
26588;SDS011;14235;48.532;8.722;2023-12-14T07:50:23;3.05;;;2.72;;
26588;SDS011;14235;48.532;8.722;2023-12-14T07:52:49;2.88;;;2.67;;
26588;SDS011;14235;48.532;8.722;2023-12-14T07:55:15;3.53;;;3.03;;
26588;SDS011;14235;48.532;8.722;2023-12-14T07:57:40;3.50;;;3.00;;
26588;SDS011;14235;48.532;8.722;2023-12-14T08:00:06;3.60;;;3.28;;
26588;SDS011;14235;48.532;8.722;2023-12-14T08:02:36;3.67;;;3.38;;
26588;SDS011;14235;48.532;8.722;2023-12-14T08:05:02;3.70;;;3.28;;
26588;SDS011;14235;48.532;8.722;2023-12-14T08:07:28;3.00;;;2.80;;
26588;SDS011;14235;48.532;8.722;2023-12-14T08:09:54;3.50;;;3.30;;
26588;SDS011;14235;48.532;8.722;2023-12-14T08:12:20;6.55;;;3.30;;
26588;SDS011;14235;48.532;8.722;2023-12-14T08:14:47;4.00;;;3.70;;
26588;SDS011;14235;48.532;8.722;2023-12-14T08:17:13;4.38;;;3.75;;
26588;SDS011;14235;48.532;8.722;2023-12-14T08:19:38;6.13;;;4.78;;
26588;SDS011;14235;48.532;8.722;2023-12-14T08:22:04;6.20;;;4.72;;
26588;SDS011;14235;48.532;8.722;2023-12-14T08:24:30;5.72;;;5.22;;
26588;SDS011;14235;48.532;8.722;2023-12-14T08:26:56;5.70;;;5.18;;
26588;SDS011;14235;48.532;8.722;2023-12-14T08:29:21;5.60;;;5.10;;
26588;SDS011;14235;48.532;8.722;2023-12-14T08:31:47;4.60;;;3.90;;
26588;SDS011;14235;48.532;8.722;2023-12-14T08:34:13;4.63;;;4.10;;
26588;SDS011;14235;48.532;8.722;2023-12-14T08:36:39;3.45;;;3.25;;
26588;SDS011;14235;48.532;8.722;2023-12-14T08:39:05;4.07;;;3.65;;
26588;SDS011;14235;48.532;8.722;2023-12-14T08:41:31;4.50;;;4.10;;
26588;SDS011;14235;48.532;8.722;2023-12-14T08:43:57;5.20;;;4.00;;
26588;SDS011;14235;48.532;8.722;2023-12-14T08:46:23;4.45;;;4.05;;
26588;SDS011;14235;48.532;8.722;2023-12-14T08:48:48;4.40;;;4.00;;
26588;SDS011;14235;48.532;8.722;2023-12-14T08:51:14;4.45;;;4.00;;
26588;SDS011;14235;48.532;8.722;2023-12-14T08:53:40;4.15;;;3.58;;
26588;SDS011;14235;48.532;8.722;2023-12-14T08:56:18;4.90;;;4.40;;
26588;SDS011;14235;48.532;8.722;2023-12-14T08:58:43;4.40;;;4.00;;
26588;SDS011;14235;48.532;8.722;2023-12-14T09:01:09;4.65;;;4.13;;
26588;SDS011;14235;48.532;8.722;2023-12-14T09:03:37;3.42;;;3.13;;
26588;SDS011;14235;48.532;8.722;2023-12-14T09:06:03;3.45;;;3.15;;
26588;SDS011;14235;48.532;8.722;2023-12-14T09:08:30;4.05;;;3.72;;
26588;SDS011;14235;48.532;8.722;2023-12-14T09:10:56;4.97;;;4.57;;
26588;SDS011;14235;48.532;8.722;2023-12-14T09:13:21;4.50;;;4.10;;
26588;SDS011;14235;48.532;8.722;2023-12-14T09:15:47;4.85;;;4.10;;
26588;SDS011;14235;48.532;8.722;2023-12-14T09:18:17;4.82;;;3.80;;
26588;SDS011;14235;48.532;8.722;2023-12-14T09:20:43;8.23;;;6.70;;
26588;SDS011;14235;48.532;8.722;2023-12-14T09:23:08;5.05;;;4.63;;
26588;SDS011;14235;48.532;8.722;2023-12-14T09:25:34;6.63;;;5.68;;
26588;SDS011;14235;48.532;8.722;2023-12-14T09:28:00;5.28;;;4.78;;
26588;SDS011;14235;48.532;8.722;2023-12-14T09:30:25;6.00;;;5.40;;
26588;SDS011;14235;48.532;8.722;2023-12-14T09:32:51;6.55;;;5.10;;
26588;SDS011;14235;48.532;8.722;2023-12-14T09:35:17;7.78;;;4.35;;
26588;SDS011;14235;48.532;8.722;2023-12-14T09:37:43;3.72;;;3.40;;
26588;SDS011;14235;48.532;8.722;2023-12-14T09:40:08;4.57;;;3.20;;
26588;SDS011;14235;48.532;8.722;2023-12-14T09:42:37;3.42;;;3.15;;
26588;SDS011;14235;48.532;8.722;2023-12-14T09:45:04;4.00;;;3.60;;
26588;SDS011;14235;48.532;8.722;2023-12-14T09:47:31;4.38;;;3.65;;
26588;SDS011;14235;48.532;8.722;2023-12-14T09:49:58;4.15;;;3.50;;
26588;SDS011;14235;48.532;8.722;2023-12-14T09:52:24;4.53;;;3.53;;
26588;SDS011;14235;48.532;8.722;2023-12-14T09:54:50;2.88;;;2.63;;
26588;SDS011;14235;48.532;8.722;2023-12-14T09:57:18;2.55;;;2.35;;
26588;SDS011;14235;48.532;8.722;2023-12-14T09:59:50;4.38;;;3.38;;
26588;SDS011;14235;48.532;8.722;2023-12-14T10:02:25;2.88;;;2.65;;
26588;SDS011;14235;48.532;8.722;2023-12-14T10:04:52;2.75;;;2.55;;
26588;SDS011;14235;48.532;8.722;2023-12-14T10:07:18;4.15;;;2.80;;
26588;SDS011;14235;48.532;8.722;2023-12-14T10:09:45;2.30;;;2.20;;
26588;SDS011;14235;48.532;8.722;2023-12-14T10:12:10;2.97;;;2.30;;
26588;SDS011;14235;48.532;8.722;2023-12-14T10:14:36;2.17;;;2.08;;
26588;SDS011;14235;48.532;8.722;2023-12-14T10:17:13;2.35;;;2.20;;
26588;SDS011;14235;48.532;8.722;2023-12-14T10:19:47;2.00;;;1.90;;
26588;SDS011;14235;48.532;8.722;2023-12-14T10:22:39;5.38;;;2.38;;
26588;SDS011;14235;48.532;8.722;2023-12-14T10:25:07;4.93;;;2.47;;
26588;SDS011;14235;48.532;8.722;2023-12-14T10:27:34;2.33;;;2.13;;
26588;SDS011;14235;48.532;8.722;2023-12-14T10:30:05;2.70;;;2.30;;
26588;SDS011;14235;48.532;8.722;2023-12-14T10:32:37;2.88;;;1.98;;
26588;SDS011;14235;48.532;8.722;2023-12-14T10:35:03;3.03;;;2.22;;
26588;SDS011;14235;48.532;8.722;2023-12-14T10:37:29;2.33;;;2.13;;
26588;SDS011;14235;48.532;8.722;2023-12-14T10:39:57;2.25;;;1.60;;
26588;SDS011;14235;48.532;8.722;2023-12-14T10:42:25;2.67;;;1.40;;
26588;SDS011;14235;48.532;8.722;2023-12-14T10:44:53;1.52;;;1.42;;
26588;SDS011;14235;48.532;8.722;2023-12-14T10:47:19;1.98;;;1.88;;
26588;SDS011;14235;48.532;8.722;2023-12-14T10:49:52;2.25;;;2.05;;
26588;SDS011;14235;48.532;8.722;2023-12-14T10:52:21;2.45;;;2.15;;
26588;SDS011;14235;48.532;8.722;2023-12-14T10:54:49;2.60;;;2.40;;
26588;SDS011;14235;48.532;8.722;2023-12-14T10:57:21;1.08;;;1.08;;
26588;SDS011;14235;48.532;8.722;2023-12-14T10:59:49;1.48;;;1.25;;
26588;SDS011;14235;48.532;8.722;2023-12-14T11:02:14;2.20;;;1.13;;
26588;SDS011;14235;48.532;8.722;2023-12-14T11:10:43;1.00;;;1.00;;
26588;SDS011;14235;48.532;8.722;2023-12-14T11:13:21;0.57;;;0.57;;
26588;SDS011;14235;48.532;8.722;2023-12-14T11:15:49;0.90;;;0.90;;
26588;SDS011;14235;48.532;8.722;2023-12-14T11:23:11;0.70;;;0.70;;
26588;SDS011;14235;48.532;8.722;2023-12-14T11:25:39;0.95;;;0.95;;
26588;SDS011;14235;48.532;8.722;2023-12-14T11:28:08;0.93;;;0.88;;
26588;SDS011;14235;48.532;8.722;2023-12-14T11:30:35;1.30;;;0.90;;
26588;SDS011;14235;48.532;8.722;2023-12-14T11:33:02;1.25;;;0.90;;
26588;SDS011;14235;48.532;8.722;2023-12-14T11:35:28;0.80;;;0.80;;
26588;SDS011;14235;48.532;8.722;2023-12-14T11:37:59;0.80;;;0.80;;
26588;SDS011;14235;48.532;8.722;2023-12-14T11:40:35;0.60;;;0.60;;
26588;SDS011;14235;48.532;8.722;2023-12-14T11:43:02;0.60;;;0.60;;
26588;SDS011;14235;48.532;8.722;2023-12-14T11:45:33;1.08;;;0.80;;
26588;SDS011;14235;48.532;8.722;2023-12-14T11:47:59;0.70;;;0.70;;
26588;SDS011;14235;48.532;8.722;2023-12-14T11:50:26;0.73;;;0.68;;
26588;SDS011;14235;48.532;8.722;2023-12-14T11:52:52;0.80;;;0.80;;
26588;SDS011;14235;48.532;8.722;2023-12-14T11:55:18;1.77;;;1.20;;
26588;SDS011;14235;48.532;8.722;2023-12-14T11:57:46;1.23;;;0.95;;
26588;SDS011;14235;48.532;8.722;2023-12-14T12:00:13;3.92;;;1.00;;
26588;SDS011;14235;48.532;8.722;2023-12-14T12:02:39;1.25;;;1.15;;
26588;SDS011;14235;48.532;8.722;2023-12-14T12:05:06;0.90;;;0.90;;
26588;SDS011;14235;48.532;8.722;2023-12-14T12:07:32;1.95;;;1.20;;
26588;SDS011;14235;48.532;8.722;2023-12-14T12:09:58;1.05;;;0.95;;
26588;SDS011;14235;48.532;8.722;2023-12-14T12:12:24;1.52;;;1.10;;
26588;SDS011;14235;48.532;8.722;2023-12-14T12:14:50;0.90;;;0.90;;
26588;SDS011;14235;48.532;8.722;2023-12-14T12:17:17;1.35;;;0.65;;
26588;SDS011;14235;48.532;8.722;2023-12-14T12:19:46;0.60;;;0.60;;
26588;SDS011;14235;48.532;8.722;2023-12-14T12:22:23;1.02;;;0.98;;
26588;SDS011;14235;48.532;8.722;2023-12-14T12:24:48;1.48;;;1.20;;
26588;SDS011;14235;48.532;8.722;2023-12-14T12:27:14;1.67;;;1.58;;
26588;SDS011;14235;48.532;8.722;2023-12-14T12:29:39;1.20;;;1.20;;
26588;SDS011;14235;48.532;8.722;2023-12-14T12:32:05;1.77;;;1.48;;
26588;SDS011;14235;48.532;8.722;2023-12-14T12:34:30;1.55;;;1.45;;
26588;SDS011;14235;48.532;8.722;2023-12-14T12:36:56;2.03;;;1.85;;
26588;SDS011;14235;48.532;8.722;2023-12-14T12:39:22;2.65;;;1.88;;
26588;SDS011;14235;48.532;8.722;2023-12-14T12:41:48;1.73;;;1.63;;
26588;SDS011;14235;48.532;8.722;2023-12-14T12:44:15;1.10;;;1.10;;
26588;SDS011;14235;48.532;8.722;2023-12-14T12:46:40;2.10;;;2.00;;
26588;SDS011;14235;48.532;8.722;2023-12-14T12:49:06;2.45;;;2.25;;
26588;SDS011;14235;48.532;8.722;2023-12-14T12:51:32;2.20;;;1.77;;
26588;SDS011;14235;48.532;8.722;2023-12-14T12:53:58;1.85;;;1.75;;
26588;SDS011;14235;48.532;8.722;2023-12-14T12:56:25;1.90;;;1.70;;
26588;SDS011;14235;48.532;8.722;2023-12-14T12:58:51;1.23;;;1.23;;
26588;SDS011;14235;48.532;8.722;2023-12-14T13:01:19;1.15;;;1.15;;
26588;SDS011;14235;48.532;8.722;2023-12-14T13:03:47;1.50;;;1.40;;
26588;SDS011;14235;48.532;8.722;2023-12-14T13:06:17;1.45;;;1.35;;
26588;SDS011;14235;48.532;8.722;2023-12-14T13:08:43;0.98;;;0.98;;
26588;SDS011;14235;48.532;8.722;2023-12-14T13:11:08;1.52;;;1.42;;
26588;SDS011;14235;48.532;8.722;2023-12-14T13:13:34;1.80;;;1.70;;
26588;SDS011;14235;48.532;8.722;2023-12-14T13:15:59;2.45;;;2.30;;
26588;SDS011;14235;48.532;8.722;2023-12-14T13:18:25;2.20;;;1.88;;
26588;SDS011;14235;48.532;8.722;2023-12-14T13:20:51;2.17;;;2.08;;
26588;SDS011;14235;48.532;8.722;2023-12-14T13:23:16;1.85;;;1.75;;
26588;SDS011;14235;48.532;8.722;2023-12-14T13:25:42;1.85;;;1.70;;
26588;SDS011;14235;48.532;8.722;2023-12-14T13:28:09;1.85;;;1.67;;
26588;SDS011;14235;48.532;8.722;2023-12-14T13:30:35;2.38;;;2.08;;
26588;SDS011;14235;48.532;8.722;2023-12-14T13:33:01;1.80;;;1.70;;
26588;SDS011;14235;48.532;8.722;2023-12-14T13:35:27;1.92;;;1.83;;
26588;SDS011;14235;48.532;8.722;2023-12-14T13:37:53;3.10;;;2.00;;
26588;SDS011;14235;48.532;8.722;2023-12-14T13:40:19;2.15;;;2.03;;
26588;SDS011;14235;48.532;8.722;2023-12-14T13:42:44;1.77;;;1.67;;
26588;SDS011;14235;48.532;8.722;2023-12-14T13:45:10;1.70;;;1.60;;
26588;SDS011;14235;48.532;8.722;2023-12-14T13:47:35;1.95;;;1.75;;
26588;SDS011;14235;48.532;8.722;2023-12-14T13:50:01;1.73;;;1.63;;
26588;SDS011;14235;48.532;8.722;2023-12-14T13:52:29;1.63;;;1.52;;
26588;SDS011;14235;48.532;8.722;2023-12-14T13:54:55;1.90;;;1.80;;
26588;SDS011;14235;48.532;8.722;2023-12-14T13:57:21;2.00;;;1.90;;
26588;SDS011;14235;48.532;8.722;2023-12-14T13:59:47;2.33;;;2.13;;
26588;SDS011;14235;48.532;8.722;2023-12-14T14:02:13;2.47;;;2.28;;
26588;SDS011;14235;48.532;8.722;2023-12-14T14:04:38;3.25;;;2.45;;
26588;SDS011;14235;48.532;8.722;2023-12-14T14:07:04;3.40;;;2.30;;
26588;SDS011;14235;48.532;8.722;2023-12-14T14:09:29;2.17;;;2.00;;
26588;SDS011;14235;48.532;8.722;2023-12-14T14:11:55;2.08;;;1.98;;
26588;SDS011;14235;48.532;8.722;2023-12-14T14:14:21;2.35;;;2.25;;
26588;SDS011;14235;48.532;8.722;2023-12-14T14:16:48;2.20;;;2.10;;
26588;SDS011;14235;48.532;8.722;2023-12-14T14:19:13;1.95;;;1.83;;
26588;SDS011;14235;48.532;8.722;2023-12-14T14:21:39;2.00;;;1.90;;
26588;SDS011;14235;48.532;8.722;2023-12-14T14:24:06;1.80;;;1.70;;
26588;SDS011;14235;48.532;8.722;2023-12-14T14:26:31;2.05;;;1.95;;
26588;SDS011;14235;48.532;8.722;2023-12-14T14:28:57;2.08;;;1.98;;
26588;SDS011;14235;48.532;8.722;2023-12-14T14:31:26;2.38;;;2.17;;
26588;SDS011;14235;48.532;8.722;2023-12-14T14:33:56;2.22;;;2.00;;
26588;SDS011;14235;48.532;8.722;2023-12-14T14:36:22;2.97;;;2.03;;
26588;SDS011;14235;48.532;8.722;2023-12-14T14:38:48;3.00;;;2.80;;
26588;SDS011;14235;48.532;8.722;2023-12-14T14:41:15;3.63;;;3.17;;
26588;SDS011;14235;48.532;8.722;2023-12-14T14:43:40;3.05;;;2.30;;
26588;SDS011;14235;48.532;8.722;2023-12-14T14:46:07;2.05;;;1.85;;
26588;SDS011;14235;48.532;8.722;2023-12-14T14:48:33;2.53;;;2.33;;
26588;SDS011;14235;48.532;8.722;2023-12-14T14:50:59;2.50;;;2.30;;
26588;SDS011;14235;48.532;8.722;2023-12-14T14:53:25;2.05;;;1.88;;
26588;SDS011;14235;48.532;8.722;2023-12-14T14:55:50;2.55;;;2.35;;
26588;SDS011;14235;48.532;8.722;2023-12-14T14:58:20;2.40;;;2.03;;
26588;SDS011;14235;48.532;8.722;2023-12-14T15:00:46;2.53;;;2.33;;
26588;SDS011;14235;48.532;8.722;2023-12-14T15:03:12;2.17;;;2.08;;